sensor_id;sensor_type;location;lat;lon;timestamp;temperature;humidity
23719;DHT22;43322;52.230;5.702;2024-01-25T00:00:26;7.70;99.90
23719;DHT22;43322;52.230;5.702;2024-01-25T00:02:53;7.60;99.90
23719;DHT22;43322;52.230;5.702;2024-01-25T00:05:20;7.60;99.90
23719;DHT22;43322;52.230;5.702;2024-01-25T00:07:47;7.50;99.90
23719;DHT22;43322;52.230;5.702;2024-01-25T00:10:16;7.50;99.90
23719;DHT22;43322;52.230;5.702;2024-01-25T00:12:43;7.50;99.90
23719;DHT22;43322;52.230;5.702;2024-01-25T00:15:10;7.40;99.90
23719;DHT22;43322;52.230;5.702;2024-01-25T00:17:37;7.40;99.90
23719;DHT22;43322;52.230;5.702;2024-01-25T00:20:05;7.30;99.90
23719;DHT22;43322;52.230;5.702;2024-01-25T00:22:32;7.30;99.90
23719;DHT22;43322;52.230;5.702;2024-01-25T00:24:58;7.30;99.90
23719;DHT22;43322;52.230;5.702;2024-01-25T00:27:26;7.20;99.90
23719;DHT22;43322;52.230;5.702;2024-01-25T00:29:53;7.20;99.90
23719;DHT22;43322;52.230;5.702;2024-01-25T00:32:20;7.30;99.90
23719;DHT22;43322;52.230;5.702;2024-01-25T00:34:47;7.20;99.90
23719;DHT22;43322;52.230;5.702;2024-01-25T00:37:15;7.20;99.90
23719;DHT22;43322;52.230;5.702;2024-01-25T00:39:42;7.30;99.90
23719;DHT22;43322;52.230;5.702;2024-01-25T00:42:12;7.30;99.90
23719;DHT22;43322;52.230;5.702;2024-01-25T00:44:41;7.20;99.90
23719;DHT22;43322;52.230;5.702;2024-01-25T00:47:09;7.10;99.90
23719;DHT22;43322;52.230;5.702;2024-01-25T00:49:37;7.10;99.90
23719;DHT22;43322;52.230;5.702;2024-01-25T00:52:05;7.10;99.90
23719;DHT22;43322;52.230;5.702;2024-01-25T00:54:32;7.00;99.90
23719;DHT22;43322;52.230;5.702;2024-01-25T00:57:00;7.10;99.90
23719;DHT22;43322;52.230;5.702;2024-01-25T00:59:27;7.00;99.90
23719;DHT22;43322;52.230;5.702;2024-01-25T01:01:58;6.90;99.90
23719;DHT22;43322;52.230;5.702;2024-01-25T01:04:26;7.00;99.90
23719;DHT22;43322;52.230;5.702;2024-01-25T01:06:53;6.90;99.90
23719;DHT22;43322;52.230;5.702;2024-01-25T01:09:20;6.90;99.90
23719;DHT22;43322;52.230;5.702;2024-01-25T01:11:47;6.90;99.90
23719;DHT22;43322;52.230;5.702;2024-01-25T01:14:13;6.90;99.90
23719;DHT22;43322;52.230;5.702;2024-01-25T01:16:39;7.30;99.90
23719;DHT22;43322;52.230;5.702;2024-01-25T01:19:07;6.80;99.90
23719;DHT22;43322;52.230;5.702;2024-01-25T01:21:34;6.80;99.90
23719;DHT22;43322;52.230;5.702;2024-01-25T01:24:01;6.80;99.90
23719;DHT22;43322;52.230;5.702;2024-01-25T01:26:28;6.80;99.90
23719;DHT22;43322;52.230;5.702;2024-01-25T01:28:55;6.70;99.90
23719;DHT22;43322;52.230;5.702;2024-01-25T01:31:22;6.80;99.90
23719;DHT22;43322;52.230;5.702;2024-01-25T01:33:48;6.80;99.90
23719;DHT22;43322;52.230;5.702;2024-01-25T01:36:16;6.90;99.90
23719;DHT22;43322;52.230;5.702;2024-01-25T01:38:43;6.80;99.90
23719;DHT22;43322;52.230;5.702;2024-01-25T01:41:10;6.90;99.90
23719;DHT22;43322;52.230;5.702;2024-01-25T01:43:38;6.90;99.90
23719;DHT22;43322;52.230;5.702;2024-01-25T01:46:09;6.80;99.90
23719;DHT22;43322;52.230;5.702;2024-01-25T01:48:38;6.80;99.90
23719;DHT22;43322;52.230;5.702;2024-01-25T01:51:05;6.70;99.90
23719;DHT22;43322;52.230;5.702;2024-01-25T01:53:34;6.80;99.90
23719;DHT22;43322;52.230;5.702;2024-01-25T01:56:01;6.70;99.90
23719;DHT22;43322;52.230;5.702;2024-01-25T01:58:29;6.80;99.90
23719;DHT22;43322;52.230;5.702;2024-01-25T02:00:58;6.60;99.90
23719;DHT22;43322;52.230;5.702;2024-01-25T02:03:25;6.50;99.90
23719;DHT22;43322;52.230;5.702;2024-01-25T02:05:52;6.30;99.90
23719;DHT22;43322;52.230;5.702;2024-01-25T02:08:19;6.50;99.90
23719;DHT22;43322;52.230;5.702;2024-01-25T02:10:47;6.10;99.90
23719;DHT22;43322;52.230;5.702;2024-01-25T02:13:14;6.40;99.90
23719;DHT22;43322;52.230;5.702;2024-01-25T02:15:41;6.30;99.90
23719;DHT22;43322;52.230;5.702;2024-01-25T02:18:08;6.10;99.90
23719;DHT22;43322;52.230;5.702;2024-01-25T02:20:35;6.00;99.90
23719;DHT22;43322;52.230;5.702;2024-01-25T02:23:03;5.80;99.90
23719;DHT22;43322;52.230;5.702;2024-01-25T02:25:30;5.70;99.90
23719;DHT22;43322;52.230;5.702;2024-01-25T02:27:57;5.60;99.90
23719;DHT22;43322;52.230;5.702;2024-01-25T02:30:24;5.60;99.90
23719;DHT22;43322;52.230;5.702;2024-01-25T02:32:50;5.70;99.90
23719;DHT22;43322;52.230;5.702;2024-01-25T02:35:18;5.70;99.90
23719;DHT22;43322;52.230;5.702;2024-01-25T02:37:44;5.70;99.90
23719;DHT22;43322;52.230;5.702;2024-01-25T02:40:13;5.80;99.90
23719;DHT22;43322;52.230;5.702;2024-01-25T02:42:40;5.60;99.90
23719;DHT22;43322;52.230;5.702;2024-01-25T02:45:07;5.50;99.90
23719;DHT22;43322;52.230;5.702;2024-01-25T02:47:34;5.50;99.90
23719;DHT22;43322;52.230;5.702;2024-01-25T02:50:01;5.60;99.90
23719;DHT22;43322;52.230;5.702;2024-01-25T02:52:28;5.60;99.90
23719;DHT22;43322;52.230;5.702;2024-01-25T02:54:54;5.50;99.90
23719;DHT22;43322;52.230;5.702;2024-01-25T02:57:23;5.30;99.90
23719;DHT22;43322;52.230;5.702;2024-01-25T02:59:50;5.20;99.90
23719;DHT22;43322;52.230;5.702;2024-01-25T03:02:16;5.10;99.90
23719;DHT22;43322;52.230;5.702;2024-01-25T03:04:44;5.00;99.90
23719;DHT22;43322;52.230;5.702;2024-01-25T03:07:11;5.00;99.90
23719;DHT22;43322;52.230;5.702;2024-01-25T03:09:38;5.10;99.90
23719;DHT22;43322;52.230;5.702;2024-01-25T03:12:06;5.00;99.90
23719;DHT22;43322;52.230;5.702;2024-01-25T03:14:34;4.90;99.90
23719;DHT22;43322;52.230;5.702;2024-01-25T03:17:01;4.80;99.90
23719;DHT22;43322;52.230;5.702;2024-01-25T03:19:28;4.80;99.90
23719;DHT22;43322;52.230;5.702;2024-01-25T03:21:55;4.70;99.90
23719;DHT22;43322;52.230;5.702;2024-01-25T03:24:22;4.70;99.90
23719;DHT22;43322;52.230;5.702;2024-01-25T03:26:49;4.60;99.90
23719;DHT22;43322;52.230;5.702;2024-01-25T03:29:16;4.50;99.90
23719;DHT22;43322;52.230;5.702;2024-01-25T03:31:44;4.50;99.90
23719;DHT22;43322;52.230;5.702;2024-01-25T03:34:11;4.70;99.90
23719;DHT22;43322;52.230;5.702;2024-01-25T03:36:38;4.70;99.90
23719;DHT22;43322;52.230;5.702;2024-01-25T03:39:06;4.80;99.90
23719;DHT22;43322;52.230;5.702;2024-01-25T03:41:33;4.70;99.90
23719;DHT22;43322;52.230;5.702;2024-01-25T03:44:00;4.70;99.90
23719;DHT22;43322;52.230;5.702;2024-01-25T03:46:27;4.60;99.90
23719;DHT22;43322;52.230;5.702;2024-01-25T03:48:55;4.60;99.90
23719;DHT22;43322;52.230;5.702;2024-01-25T03:51:22;4.70;99.90
23719;DHT22;43322;52.230;5.702;2024-01-25T03:53:49;4.80;99.90
23719;DHT22;43322;52.230;5.702;2024-01-25T03:56:18;5.00;99.90
23719;DHT22;43322;52.230;5.702;2024-01-25T03:58:45;5.00;99.90
23719;DHT22;43322;52.230;5.702;2024-01-25T04:01:12;4.90;99.90
23719;DHT22;43322;52.230;5.702;2024-01-25T04:03:39;5.00;99.90
23719;DHT22;43322;52.230;5.702;2024-01-25T04:06:08;5.00;99.90
23719;DHT22;43322;52.230;5.702;2024-01-25T04:08:34;4.90;99.90
23719;DHT22;43322;52.230;5.702;2024-01-25T04:11:01;4.90;99.90
23719;DHT22;43322;52.230;5.702;2024-01-25T04:13:28;4.90;99.90
23719;DHT22;43322;52.230;5.702;2024-01-25T04:15:55;4.80;99.90
23719;DHT22;43322;52.230;5.702;2024-01-25T04:18:21;4.70;99.90
23719;DHT22;43322;52.230;5.702;2024-01-25T04:20:48;4.60;99.90
23719;DHT22;43322;52.230;5.702;2024-01-25T04:23:17;4.50;99.90
23719;DHT22;43322;52.230;5.702;2024-01-25T04:25:44;4.40;99.90
23719;DHT22;43322;52.230;5.702;2024-01-25T04:28:11;4.30;99.90
23719;DHT22;43322;52.230;5.702;2024-01-25T04:30:39;4.90;99.90
23719;DHT22;43322;52.230;5.702;2024-01-25T04:33:05;4.40;99.90
23719;DHT22;43322;52.230;5.702;2024-01-25T04:35:32;4.50;99.90
23719;DHT22;43322;52.230;5.702;2024-01-25T04:37:59;4.50;99.90
23719;DHT22;43322;52.230;5.702;2024-01-25T04:40:27;4.50;99.90
23719;DHT22;43322;52.230;5.702;2024-01-25T04:42:54;4.60;99.90
23719;DHT22;43322;52.230;5.702;2024-01-25T04:45:21;4.50;99.90
23719;DHT22;43322;52.230;5.702;2024-01-25T04:47:48;4.40;99.90
23719;DHT22;43322;52.230;5.702;2024-01-25T04:50:14;4.40;99.90
23719;DHT22;43322;52.230;5.702;2024-01-25T04:52:41;4.40;99.90
23719;DHT22;43322;52.230;5.702;2024-01-25T04:55:09;4.30;99.90
23719;DHT22;43322;52.230;5.702;2024-01-25T04:57:37;4.30;99.90
23719;DHT22;43322;52.230;5.702;2024-01-25T05:00:05;4.40;99.90
23719;DHT22;43322;52.230;5.702;2024-01-25T05:02:32;4.30;99.90
23719;DHT22;43322;52.230;5.702;2024-01-25T05:04:59;4.30;99.90
23719;DHT22;43322;52.230;5.702;2024-01-25T05:07:25;4.30;99.90
23719;DHT22;43322;52.230;5.702;2024-01-25T05:09:52;4.30;99.90
23719;DHT22;43322;52.230;5.702;2024-01-25T05:12:19;4.30;99.90
23719;DHT22;43322;52.230;5.702;2024-01-25T05:14:47;4.20;99.90
23719;DHT22;43322;52.230;5.702;2024-01-25T05:17:14;4.00;99.90
23719;DHT22;43322;52.230;5.702;2024-01-25T05:19:40;4.10;99.90
23719;DHT22;43322;52.230;5.702;2024-01-25T05:22:07;4.00;99.90
23719;DHT22;43322;52.230;5.702;2024-01-25T05:24:34;4.30;99.90
23719;DHT22;43322;52.230;5.702;2024-01-25T05:27:01;4.40;99.90
23719;DHT22;43322;52.230;5.702;2024-01-25T05:29:28;4.40;99.90
23719;DHT22;43322;52.230;5.702;2024-01-25T05:31:56;4.00;99.90
23719;DHT22;43322;52.230;5.702;2024-01-25T05:34:23;3.80;99.90
23719;DHT22;43322;52.230;5.702;2024-01-25T05:36:50;3.90;99.90
23719;DHT22;43322;52.230;5.702;2024-01-25T05:39:17;3.90;99.90
23719;DHT22;43322;52.230;5.702;2024-01-25T05:41:44;3.80;99.90
23719;DHT22;43322;52.230;5.702;2024-01-25T05:44:12;3.40;99.90
23719;DHT22;43322;52.230;5.702;2024-01-25T05:46:39;3.40;99.90
23719;DHT22;43322;52.230;5.702;2024-01-25T05:49:07;3.50;99.90
23719;DHT22;43322;52.230;5.702;2024-01-25T05:51:34;3.60;99.90
23719;DHT22;43322;52.230;5.702;2024-01-25T05:54:01;3.80;99.90
23719;DHT22;43322;52.230;5.702;2024-01-25T05:56:28;3.90;99.90
23719;DHT22;43322;52.230;5.702;2024-01-25T05:58:55;4.00;99.90
23719;DHT22;43322;52.230;5.702;2024-01-25T06:01:21;3.90;99.90
23719;DHT22;43322;52.230;5.702;2024-01-25T06:03:48;3.80;99.90
23719;DHT22;43322;52.230;5.702;2024-01-25T06:06:16;3.80;99.90
23719;DHT22;43322;52.230;5.702;2024-01-25T06:08:43;3.90;99.90
23719;DHT22;43322;52.230;5.702;2024-01-25T06:11:10;4.00;99.90
23719;DHT22;43322;52.230;5.702;2024-01-25T06:13:37;3.90;99.90
23719;DHT22;43322;52.230;5.702;2024-01-25T06:16:04;3.60;99.90
23719;DHT22;43322;52.230;5.702;2024-01-25T06:18:31;4.00;99.90
23719;DHT22;43322;52.230;5.702;2024-01-25T06:20:58;3.40;99.90
23719;DHT22;43322;52.230;5.702;2024-01-25T06:23:26;3.50;99.90
23719;DHT22;43322;52.230;5.702;2024-01-25T06:25:52;3.50;99.90
23719;DHT22;43322;52.230;5.702;2024-01-25T06:28:19;3.50;99.90
23719;DHT22;43322;52.230;5.702;2024-01-25T06:30:47;3.60;99.90
23719;DHT22;43322;52.230;5.702;2024-01-25T06:33:13;3.60;99.90
23719;DHT22;43322;52.230;5.702;2024-01-25T06:35:40;3.60;99.90
23719;DHT22;43322;52.230;5.702;2024-01-25T06:38:07;3.70;99.90
23719;DHT22;43322;52.230;5.702;2024-01-25T06:40:35;3.70;99.90
23719;DHT22;43322;52.230;5.702;2024-01-25T06:43:01;3.70;99.90
23719;DHT22;43322;52.230;5.702;2024-01-25T06:45:29;3.60;99.90
23719;DHT22;43322;52.230;5.702;2024-01-25T06:47:56;3.50;99.90
23719;DHT22;43322;52.230;5.702;2024-01-25T06:50:22;3.60;99.90
23719;DHT22;43322;52.230;5.702;2024-01-25T06:52:50;3.40;99.90
23719;DHT22;43322;52.230;5.702;2024-01-25T06:55:19;3.20;99.90
23719;DHT22;43322;52.230;5.702;2024-01-25T06:57:47;3.30;99.90
23719;DHT22;43322;52.230;5.702;2024-01-25T07:00:15;3.30;99.90
23719;DHT22;43322;52.230;5.702;2024-01-25T07:02:42;3.40;99.90
23719;DHT22;43322;52.230;5.702;2024-01-25T07:05:10;3.40;99.90
23719;DHT22;43322;52.230;5.702;2024-01-25T07:07:37;3.30;99.90
23719;DHT22;43322;52.230;5.702;2024-01-25T07:10:06;3.50;99.90
23719;DHT22;43322;52.230;5.702;2024-01-25T07:12:32;3.50;99.90
23719;DHT22;43322;52.230;5.702;2024-01-25T07:15:01;3.50;99.90
23719;DHT22;43322;52.230;5.702;2024-01-25T07:17:28;3.60;99.90
23719;DHT22;43322;52.230;5.702;2024-01-25T07:19:54;3.60;99.90
23719;DHT22;43322;52.230;5.702;2024-01-25T07:22:22;3.60;99.90
23719;DHT22;43322;52.230;5.702;2024-01-25T07:24:48;3.40;99.90
23719;DHT22;43322;52.230;5.702;2024-01-25T07:27:15;3.20;99.90
23719;DHT22;43322;52.230;5.702;2024-01-25T07:29:43;2.90;99.90
23719;DHT22;43322;52.230;5.702;2024-01-25T07:32:12;2.70;99.90
23719;DHT22;43322;52.230;5.702;2024-01-25T07:34:39;2.60;99.90
23719;DHT22;43322;52.230;5.702;2024-01-25T07:37:05;2.70;99.90
23719;DHT22;43322;52.230;5.702;2024-01-25T07:39:32;2.70;99.90
23719;DHT22;43322;52.230;5.702;2024-01-25T07:41:59;2.80;99.90
23719;DHT22;43322;52.230;5.702;2024-01-25T07:44:26;2.90;99.90
23719;DHT22;43322;52.230;5.702;2024-01-25T07:46:53;3.10;99.90
23719;DHT22;43322;52.230;5.702;2024-01-25T07:49:21;3.10;99.90
23719;DHT22;43322;52.230;5.702;2024-01-25T07:51:48;3.20;99.90
23719;DHT22;43322;52.230;5.702;2024-01-25T07:54:15;3.20;99.90
23719;DHT22;43322;52.230;5.702;2024-01-25T07:56:41;3.20;99.90
23719;DHT22;43322;52.230;5.702;2024-01-25T07:59:08;3.40;99.90
23719;DHT22;43322;52.230;5.702;2024-01-25T08:01:35;3.50;99.90
23719;DHT22;43322;52.230;5.702;2024-01-25T08:04:02;3.60;99.90
23719;DHT22;43322;52.230;5.702;2024-01-25T08:06:31;3.60;99.90
23719;DHT22;43322;52.230;5.702;2024-01-25T08:08:58;3.50;99.90
23719;DHT22;43322;52.230;5.702;2024-01-25T08:11:25;3.30;99.90
23719;DHT22;43322;52.230;5.702;2024-01-25T08:13:52;3.10;99.90
23719;DHT22;43322;52.230;5.702;2024-01-25T08:16:18;3.00;99.90
23719;DHT22;43322;52.230;5.702;2024-01-25T08:18:47;3.90;99.90
23719;DHT22;43322;52.230;5.702;2024-01-25T08:21:14;3.30;99.90
23719;DHT22;43322;52.230;5.702;2024-01-25T08:23:43;3.20;99.90
23719;DHT22;43322;52.230;5.702;2024-01-25T08:26:09;3.30;99.90
23719;DHT22;43322;52.230;5.702;2024-01-25T08:28:39;3.40;99.90
23719;DHT22;43322;52.230;5.702;2024-01-25T08:31:06;3.50;99.90
23719;DHT22;43322;52.230;5.702;2024-01-25T08:33:33;4.40;99.90
23719;DHT22;43322;52.230;5.702;2024-01-25T08:36:00;3.60;99.90
23719;DHT22;43322;52.230;5.702;2024-01-25T08:38:26;3.70;99.90
23719;DHT22;43322;52.230;5.702;2024-01-25T08:40:55;3.80;99.90
23719;DHT22;43322;52.230;5.702;2024-01-25T08:43:21;3.90;99.90
23719;DHT22;43322;52.230;5.702;2024-01-25T08:45:48;4.00;99.90
23719;DHT22;43322;52.230;5.702;2024-01-25T08:48:15;3.80;99.90
23719;DHT22;43322;52.230;5.702;2024-01-25T08:50:42;3.80;99.90
23719;DHT22;43322;52.230;5.702;2024-01-25T08:53:09;3.90;99.90
23719;DHT22;43322;52.230;5.702;2024-01-25T08:55:35;4.00;99.90
23719;DHT22;43322;52.230;5.702;2024-01-25T08:58:04;4.10;99.90
23719;DHT22;43322;52.230;5.702;2024-01-25T09:00:30;4.10;99.90
23719;DHT22;43322;52.230;5.702;2024-01-25T09:02:57;4.30;99.90
23719;DHT22;43322;52.230;5.702;2024-01-25T09:05:24;4.30;99.90
23719;DHT22;43322;52.230;5.702;2024-01-25T09:07:53;4.40;99.90
23719;DHT22;43322;52.230;5.702;2024-01-25T09:10:20;4.90;99.90
23719;DHT22;43322;52.230;5.702;2024-01-25T09:12:47;4.70;99.90
23719;DHT22;43322;52.230;5.702;2024-01-25T09:15:15;4.70;99.90
23719;DHT22;43322;52.230;5.702;2024-01-25T09:17:42;4.80;99.90
23719;DHT22;43322;52.230;5.702;2024-01-25T09:20:10;4.70;99.90
23719;DHT22;43322;52.230;5.702;2024-01-25T09:22:37;4.90;99.90
23719;DHT22;43322;52.230;5.702;2024-01-25T09:25:05;5.00;99.90
23719;DHT22;43322;52.230;5.702;2024-01-25T09:27:32;5.10;99.90
23719;DHT22;43322;52.230;5.702;2024-01-25T09:29:59;5.10;99.90
23719;DHT22;43322;52.230;5.702;2024-01-25T09:32:27;5.20;99.90
23719;DHT22;43322;52.230;5.702;2024-01-25T09:34:54;5.30;99.90
23719;DHT22;43322;52.230;5.702;2024-01-25T09:37:21;5.40;99.90
23719;DHT22;43322;52.230;5.702;2024-01-25T09:39:49;5.30;99.90
23719;DHT22;43322;52.230;5.702;2024-01-25T09:42:16;5.30;99.90
23719;DHT22;43322;52.230;5.702;2024-01-25T09:44:43;5.40;99.90
23719;DHT22;43322;52.230;5.702;2024-01-25T09:47:11;5.60;99.90
23719;DHT22;43322;52.230;5.702;2024-01-25T09:49:39;5.80;99.90
23719;DHT22;43322;52.230;5.702;2024-01-25T09:52:11;5.90;99.90
23719;DHT22;43322;52.230;5.702;2024-01-25T09:54:39;5.80;99.90
23719;DHT22;43322;52.230;5.702;2024-01-25T09:57:08;5.80;99.90
23719;DHT22;43322;52.230;5.702;2024-01-25T09:59:37;5.80;99.90
23719;DHT22;43322;52.230;5.702;2024-01-25T10:02:04;5.80;99.90
23719;DHT22;43322;52.230;5.702;2024-01-25T10:04:31;5.80;99.90
23719;DHT22;43322;52.230;5.702;2024-01-25T10:06:59;5.70;99.90
23719;DHT22;43322;52.230;5.702;2024-01-25T10:09:26;5.70;99.90
23719;DHT22;43322;52.230;5.702;2024-01-25T10:11:53;5.80;99.90
23719;DHT22;43322;52.230;5.702;2024-01-25T10:14:20;5.90;99.90
23719;DHT22;43322;52.230;5.702;2024-01-25T10:16:47;6.00;99.90
23719;DHT22;43322;52.230;5.702;2024-01-25T10:19:14;6.00;99.90
23719;DHT22;43322;52.230;5.702;2024-01-25T10:21:41;6.00;99.90
23719;DHT22;43322;52.230;5.702;2024-01-25T10:24:10;6.00;99.90
23719;DHT22;43322;52.230;5.702;2024-01-25T10:26:36;6.00;99.90
23719;DHT22;43322;52.230;5.702;2024-01-25T10:29:03;6.00;99.90
23719;DHT22;43322;52.230;5.702;2024-01-25T10:31:31;6.20;99.90
23719;DHT22;43322;52.230;5.702;2024-01-25T10:33:59;6.40;99.90
23719;DHT22;43322;52.230;5.702;2024-01-25T10:36:26;6.50;99.90
23719;DHT22;43322;52.230;5.702;2024-01-25T10:38:54;6.60;99.90
23719;DHT22;43322;52.230;5.702;2024-01-25T10:41:23;6.70;99.90
23719;DHT22;43322;52.230;5.702;2024-01-25T10:43:51;6.90;99.90
23719;DHT22;43322;52.230;5.702;2024-01-25T10:46:19;7.00;99.90
23719;DHT22;43322;52.230;5.702;2024-01-25T10:48:46;7.00;99.90
23719;DHT22;43322;52.230;5.702;2024-01-25T10:51:13;7.10;99.90
23719;DHT22;43322;52.230;5.702;2024-01-25T10:53:44;7.10;99.90
23719;DHT22;43322;52.230;5.702;2024-01-25T10:56:11;7.10;99.90
23719;DHT22;43322;52.230;5.702;2024-01-25T10:58:42;7.10;99.90
23719;DHT22;43322;52.230;5.702;2024-01-25T11:01:10;7.30;99.90
23719;DHT22;43322;52.230;5.702;2024-01-25T11:03:39;7.40;99.90
23719;DHT22;43322;52.230;5.702;2024-01-25T11:06:09;7.70;99.90
23719;DHT22;43322;52.230;5.702;2024-01-25T11:08:36;7.80;99.90
23719;DHT22;43322;52.230;5.702;2024-01-25T11:11:06;7.90;99.90
23719;DHT22;43322;52.230;5.702;2024-01-25T11:13:34;7.90;99.90
23719;DHT22;43322;52.230;5.702;2024-01-25T11:16:13;7.70;99.90
23719;DHT22;43322;52.230;5.702;2024-01-25T11:18:48;7.70;99.90
23719;DHT22;43322;52.230;5.702;2024-01-25T11:21:22;7.80;99.90
23719;DHT22;43322;52.230;5.702;2024-01-25T11:23:59;8.00;99.90
23719;DHT22;43322;52.230;5.702;2024-01-25T11:26:26;8.30;99.90
23719;DHT22;43322;52.230;5.702;2024-01-25T11:28:52;8.40;99.90
23719;DHT22;43322;52.230;5.702;2024-01-25T11:31:21;8.60;99.90
23719;DHT22;43322;52.230;5.702;2024-01-25T11:33:49;8.60;99.90
23719;DHT22;43322;52.230;5.702;2024-01-25T11:36:20;8.40;99.90
23719;DHT22;43322;52.230;5.702;2024-01-25T11:38:47;8.30;99.90
23719;DHT22;43322;52.230;5.702;2024-01-25T11:41:14;8.20;99.90
23719;DHT22;43322;52.230;5.702;2024-01-25T11:43:41;8.00;99.90
23719;DHT22;43322;52.230;5.702;2024-01-25T11:46:08;7.90;99.90
23719;DHT22;43322;52.230;5.702;2024-01-25T11:48:40;7.90;99.90
23719;DHT22;43322;52.230;5.702;2024-01-25T11:51:08;8.00;99.90
23719;DHT22;43322;52.230;5.702;2024-01-25T11:53:35;8.20;99.90
23719;DHT22;43322;52.230;5.702;2024-01-25T11:56:02;8.40;99.90
23719;DHT22;43322;52.230;5.702;2024-01-25T11:58:29;8.60;99.90
23719;DHT22;43322;52.230;5.702;2024-01-25T12:00:56;8.80;99.90
23719;DHT22;43322;52.230;5.702;2024-01-25T12:03:23;9.00;99.90
23719;DHT22;43322;52.230;5.702;2024-01-25T12:05:52;8.90;99.90
23719;DHT22;43322;52.230;5.702;2024-01-25T12:08:19;9.00;99.90
23719;DHT22;43322;52.230;5.702;2024-01-25T12:10:49;8.80;99.90
23719;DHT22;43322;52.230;5.702;2024-01-25T12:13:16;8.60;99.90
23719;DHT22;43322;52.230;5.702;2024-01-25T12:15:43;8.40;99.90
23719;DHT22;43322;52.230;5.702;2024-01-25T12:18:10;8.40;99.90
23719;DHT22;43322;52.230;5.702;2024-01-25T12:20:37;8.60;99.90
23719;DHT22;43322;52.230;5.702;2024-01-25T12:23:06;8.90;99.90
23719;DHT22;43322;52.230;5.702;2024-01-25T12:25:39;9.40;99.90
23719;DHT22;43322;52.230;5.702;2024-01-25T12:28:06;9.90;99.90
23719;DHT22;43322;52.230;5.702;2024-01-25T12:30:33;9.90;99.90
23719;DHT22;43322;52.230;5.702;2024-01-25T12:32:59;10.60;99.90
23719;DHT22;43322;52.230;5.702;2024-01-25T12:35:27;10.40;99.90
23719;DHT22;43322;52.230;5.702;2024-01-25T12:37:54;10.10;99.90
23719;DHT22;43322;52.230;5.702;2024-01-25T12:40:22;10.00;99.90
23719;DHT22;43322;52.230;5.702;2024-01-25T12:42:48;9.90;99.90
23719;DHT22;43322;52.230;5.702;2024-01-25T12:45:15;9.80;99.90
23719;DHT22;43322;52.230;5.702;2024-01-25T12:47:42;9.90;1.00
23719;DHT22;43322;52.230;5.702;2024-01-25T12:50:09;10.20;99.90
23719;DHT22;43322;52.230;5.702;2024-01-25T12:52:36;10.20;99.90
23719;DHT22;43322;52.230;5.702;2024-01-25T12:55:03;10.20;99.90
23719;DHT22;43322;52.230;5.702;2024-01-25T12:57:31;10.10;99.90
23719;DHT22;43322;52.230;5.702;2024-01-25T12:59:59;10.10;99.90
23719;DHT22;43322;52.230;5.702;2024-01-25T13:02:26;9.90;99.90
23719;DHT22;43322;52.230;5.702;2024-01-25T13:04:53;9.80;99.90
23719;DHT22;43322;52.230;5.702;2024-01-25T13:07:20;9.80;92.50
23719;DHT22;43322;52.230;5.702;2024-01-25T13:09:47;9.70;99.90
23719;DHT22;43322;52.230;5.702;2024-01-25T13:12:14;9.70;99.90
23719;DHT22;43322;52.230;5.702;2024-01-25T13:14:42;9.60;1.00
23719;DHT22;43322;52.230;5.702;2024-01-25T13:17:08;9.40;1.00
23719;DHT22;43322;52.230;5.702;2024-01-25T13:19:35;9.20;99.90
23719;DHT22;43322;52.230;5.702;2024-01-25T13:22:02;9.20;57.20
23719;DHT22;43322;52.230;5.702;2024-01-25T13:24:29;9.20;1.00
23719;DHT22;43322;52.230;5.702;2024-01-25T13:26:56;9.00;99.90
23719;DHT22;43322;52.230;5.702;2024-01-25T13:29:23;8.90;1.00
23719;DHT22;43322;52.230;5.702;2024-01-25T13:31:51;8.90;99.90
23719;DHT22;43322;52.230;5.702;2024-01-25T13:34:18;8.90;1.00
23719;DHT22;43322;52.230;5.702;2024-01-25T13:36:44;8.80;1.00
23719;DHT22;43322;52.230;5.702;2024-01-25T13:39:11;8.90;1.00
23719;DHT22;43322;52.230;5.702;2024-01-25T13:41:38;8.80;1.00
23719;DHT22;43322;52.230;5.702;2024-01-25T13:44:05;8.70;99.90
23719;DHT22;43322;52.230;5.702;2024-01-25T13:46:31;8.80;1.00
23719;DHT22;43322;52.230;5.702;2024-01-25T13:49:00;8.70;99.90
23719;DHT22;43322;52.230;5.702;2024-01-25T13:51:26;8.60;1.00
23719;DHT22;43322;52.230;5.702;2024-01-25T13:53:53;8.60;99.90
23719;DHT22;43322;52.230;5.702;2024-01-25T13:56:20;8.70;56.40
23719;DHT22;43322;52.230;5.702;2024-01-25T13:58:47;8.70;99.90
23719;DHT22;43322;52.230;5.702;2024-01-25T14:01:14;8.60;99.90
23719;DHT22;43322;52.230;5.702;2024-01-25T14:03:40;8.90;99.90
23719;DHT22;43322;52.230;5.702;2024-01-25T14:06:09;8.40;99.90
23719;DHT22;43322;52.230;5.702;2024-01-25T14:08:36;8.40;1.00
23719;DHT22;43322;52.230;5.702;2024-01-25T14:11:03;8.40;1.00
23719;DHT22;43322;52.230;5.702;2024-01-25T14:13:31;8.40;1.00
23719;DHT22;43322;52.230;5.702;2024-01-25T14:15:58;8.40;99.90
23719;DHT22;43322;52.230;5.702;2024-01-25T14:18:27;8.40;1.00
23719;DHT22;43322;52.230;5.702;2024-01-25T14:20:54;8.40;1.00
23719;DHT22;43322;52.230;5.702;2024-01-25T14:23:22;8.40;1.00
23719;DHT22;43322;52.230;5.702;2024-01-25T14:25:48;8.30;1.00
23719;DHT22;43322;52.230;5.702;2024-01-25T14:28:16;8.40;1.00
23719;DHT22;43322;52.230;5.702;2024-01-25T14:30:43;8.30;99.90
23719;DHT22;43322;52.230;5.702;2024-01-25T14:33:11;8.20;1.00
23719;DHT22;43322;52.230;5.702;2024-01-25T14:35:38;8.30;1.00
23719;DHT22;43322;52.230;5.702;2024-01-25T14:38:05;8.00;1.00
23719;DHT22;43322;52.230;5.702;2024-01-25T14:40:33;8.30;99.90
23719;DHT22;43322;52.230;5.702;2024-01-25T14:43:00;8.30;99.90
23719;DHT22;43322;52.230;5.702;2024-01-25T14:45:27;8.30;1.00
23719;DHT22;43322;52.230;5.702;2024-01-25T14:47:55;8.20;1.00
23719;DHT22;43322;52.230;5.702;2024-01-25T14:50:23;8.10;99.90
23719;DHT22;43322;52.230;5.702;2024-01-25T14:52:50;8.20;1.00
23719;DHT22;43322;52.230;5.702;2024-01-25T14:55:17;8.20;99.90
23719;DHT22;43322;52.230;5.702;2024-01-25T14:57:46;8.20;1.00
23719;DHT22;43322;52.230;5.702;2024-01-25T15:00:13;8.20;1.00
23719;DHT22;43322;52.230;5.702;2024-01-25T15:02:45;8.10;99.90
23719;DHT22;43322;52.230;5.702;2024-01-25T15:05:12;8.10;1.00
23719;DHT22;43322;52.230;5.702;2024-01-25T15:07:39;8.10;1.00
23719;DHT22;43322;52.230;5.702;2024-01-25T15:10:06;8.10;99.90
23719;DHT22;43322;52.230;5.702;2024-01-25T15:12:33;8.00;1.00
23719;DHT22;43322;52.230;5.702;2024-01-25T15:15:01;8.00;3.90
23719;DHT22;43322;52.230;5.702;2024-01-25T15:17:28;8.10;10.80
23719;DHT22;43322;52.230;5.702;2024-01-25T15:19:55;8.10;1.00
23719;DHT22;43322;52.230;5.702;2024-01-25T15:22:22;8.10;1.00
23719;DHT22;43322;52.230;5.702;2024-01-25T15:24:51;8.10;99.90
23719;DHT22;43322;52.230;5.702;2024-01-25T15:27:18;8.10;1.00
23719;DHT22;43322;52.230;5.702;2024-01-25T15:29:45;8.10;1.00
23719;DHT22;43322;52.230;5.702;2024-01-25T15:32:13;8.00;1.00
23719;DHT22;43322;52.230;5.702;2024-01-25T15:34:40;7.90;1.00
23719;DHT22;43322;52.230;5.702;2024-01-25T15:37:06;7.80;38.30
23719;DHT22;43322;52.230;5.702;2024-01-25T15:39:33;7.80;68.00
23719;DHT22;43322;52.230;5.702;2024-01-25T15:42:00;7.90;99.90
23719;DHT22;43322;52.230;5.702;2024-01-25T15:44:27;7.80;99.90
23719;DHT22;43322;52.230;5.702;2024-01-25T15:46:53;7.70;99.90